Home   Weather   Austria   Traun   Past weeks
Flag for Austria

Past Weather in Traun, Upper Austria, Austria — Yesterday and Last 2 Weeks

Currently: 63 °F. Sunny. (Weather station: Linz / Hoersching-Flughafen, Austria). See more current weather

Past Weather in Traun — Graph

°F

Traun Temperature Yesterday

Maximum temperature yesterday: 75 °F (at 2:50 pm)
Minimum temperature yesterday: 57 °F (at 1:20 am)
Average temperature yesterday: 65 °F

High & Low Weather Summary for the Past Weeks

 TemperatureHumidityPressure
High77 °F (May 6, 2:50 pm)100% (May 7, 3:20 am)30.27 "Hg (May 7, 3:20 am)
Low45 °F (May 10, 4:20 am)31% (May 15, 3:50 pm)29.62 "Hg (May 17, 4:20 am)
Average61 °F66%29.95 "Hg
* Reported May 6 5:20 am — May 21 5:20 am, Traun. Weather by CustomWeather, © 2024

Note: Actual official high and low records may vary slightly from our data, if they occured in-between our weather recording intervals... More about our weather records

Traun Weather History for the Previous 24 Hours

Scroll right to see more
 ConditionsComfort  
Time TempWeatherWind HumidityBarometerVisibility
5:20 am
Tue, May 21
63 °FSunny.12 mph83%29.71 "Hg10 mi
4:50 am63 °FClear.12 mph83%29.71 "HgN/A
4:20 am61 °FClear.13 mph88%29.74 "HgN/A
3:20 am61 °FClear.10 mph83%29.74 "HgN/A
2:50 am61 °FClear.12 mph83%29.74 "HgN/A
2:20 am61 °FClear.7 mph83%29.77 "HgN/A
1:50 am63 °FClear.7 mph77%29.77 "HgN/A
1:20 am63 °FClear.10 mph77%29.77 "HgN/A
12:50 am63 °FClear.10 mph77%29.80 "HgN/A
12:20 am63 °FClear.8 mph73%29.80 "HgN/A
11:50 pm
Mon, May 20
63 °FClear.9 mph68%29.80 "HgN/A
11:20 pm64 °FClear.8 mph64%29.80 "HgN/A
10:50 pm64 °FClear.9 mph64%29.80 "HgN/A
10:20 pm64 °FClear.10 mph60%29.80 "HgN/A
9:50 pm64 °FClear.9 mph64%29.80 "HgN/A
9:20 pm64 °FClear.9 mph68%29.80 "HgN/A
8:50 pm68 °FClear.10 mph60%29.80 "HgN/A
8:20 pm68 °FClear.10 mph60%29.80 "HgN/A
7:50 pm72 °FClear.8 mph53%29.80 "HgN/A
6:50 pm75 °FSunny.12 mph44%29.80 "Hg10 mi
6:20 pm75 °FPassing clouds.8 mph44%29.80 "HgN/A
5:50 pm75 °FPassing clouds.7 mph44%29.80 "HgN/A
5:20 pm75 °FPassing clouds.7 mph41%29.80 "HgN/A
4:50 pm75 °FClear.8 mph41%29.80 "HgN/A
4:20 pm75 °FPassing clouds.9 mph39%29.80 "HgN/A
3:50 pm75 °FClear.7 mph39%29.83 "HgN/A
3:20 pm75 °FClear.5 mph47%29.83 "HgN/A
2:50 pm75 °FClear.8 mph44%29.83 "HgN/A
1:50 pm73 °FClear.5 mph50%29.86 "HgN/A
12:50 pm72 °FClear.7 mph47%29.89 "HgN/A
12:20 pm70 °FPassing clouds.7 mph57%29.89 "HgN/A
11:50 am70 °FClear.6 mph57%29.89 "HgN/A
11:20 am68 °FClear.5 mph60%29.89 "HgN/A
10:50 am68 °FClear.6 mph64%29.89 "HgN/A
9:50 am66 °FPassing clouds.3 mph68%29.89 "HgN/A
9:20 am64 °FClear.3 mph73%29.89 "HgN/A
8:50 am64 °FClear.3 mph73%29.89 "HgN/A
8:20 am63 °FClear.2 mph77%29.89 "HgN/A
7:50 am61 °FSunny.2 mph83%29.89 "Hg10 mi
7:20 am61 °FSunny.2 mph83%29.89 "Hg10 mi
6:50 am57 °FSunny.2 mph94%29.89 "Hg10 mi
6:20 am57 °FPassing clouds.3 mph94%29.89 "HgN/A
Weather by CustomWeather, © 2024

See weather overview